Time;durP1;ratioP1;P1;durP2;ratioP2;P2;SDS_P1;SDS_P2;PMS_P1;PMS_P2;Temp;Humidity;BMP_temperature;BMP_pressure;BME280_temperature;BME280_humidity;BME280_pressure;Samples;Min_cycle;Max_cycle;Signal;HPM_P1;HPM_P2
2022/12/11 00:00:41;;;;;;;24.97;16.67;;;1.00;99.90;;;;;;5071360;28;20553;-59
2022/12/11 00:03:09;;;;;;;25.30;16.67;;;0.90;99.90;;;;;;5070773;28;20477;-62
2022/12/11 00:05:43;;;;;;;26.20;17.00;;;1.00;99.90;;;;;;5071420;28;20466;-62
2022/12/11 00:08:12;;;;;;;26.47;17.93;;;1.20;99.90;;;;;;5071980;28;20469;-62
2022/12/11 00:10:40;;;;;;;28.97;18.43;;;1.00;99.90;;;;;;5078158;28;20464;-61
2022/12/11 00:13:08;;;;;;;27.97;17.93;;;0.90;99.90;;;;;;5083653;28;20469;-61
2022/12/11 00:15:38;;;;;;;25.23;16.33;;;0.90;99.90;;;;;;5083325;28;20854;-61
2022/12/11 00:18:08;;;;;;;28.70;18.00;;;0.80;99.90;;;;;;5093651;28;20467;-61
2022/12/11 00:20:38;;;;;;;22.50;15.00;;;0.80;99.90;;;;;;5095513;28;20472;-61
2022/12/11 00:23:06;;;;;;;26.33;17.17;;;1.00;99.90;;;;;;5095690;28;20833;-61
2022/12/11 00:25:34;;;;;;;26.13;17.37;;;1.10;99.90;;;;;;5090428;28;20472;-62
2022/12/11 00:28:02;;;;;;;24.43;16.50;;;1.30;99.90;;;;;;5086866;28;20465;-62
2022/12/11 00:30:30;;;;;;;29.17;18.53;;;1.40;99.90;;;;;;5084934;28;20477;-61
2022/12/11 00:32:58;;;;;;;28.10;18.47;;;1.30;99.90;;;;;;5087502;28;20457;-62
2022/12/11 00:35:27;;;;;;;28.83;18.30;;;1.20;99.90;;;;;;5089812;28;20510;-61
2022/12/11 00:37:55;;;;;;;29.13;18.97;;;1.10;99.90;;;;;;5095074;28;20529;-62
2022/12/11 00:40:23;;;;;;;24.63;16.70;;;1.00;99.90;;;;;;5082531;28;20783;-62
2022/12/11 00:42:51;;;;;;;26.63;17.30;;;1.30;99.90;;;;;;5075240;28;20470;-62
2022/12/11 00:45:19;;;;;;;28.37;17.43;;;1.40;99.90;;;;;;5074979;28;20458;-62
2022/12/11 00:47:47;;;;;;;27.40;17.47;;;1.30;99.90;;;;;;5074944;28;20459;-62
2022/12/11 00:50:15;;;;;;;30.23;19.90;;;1.30;99.90;;;;;;5074798;28;20489;-62
2022/12/11 00:52:44;;;;;;;30.47;18.37;;;1.20;99.90;;;;;;5074583;28;20477;-62
2022/12/11 00:55:13;;;;;;;25.30;17.07;;;1.10;99.90;;;;;;5074939;28;20470;-62
2022/12/11 00:57:41;;;;;;;24.57;16.50;;;1.10;99.90;;;;;;5074868;28;20795;-62
2022/12/11 01:00:11;;;;;;;26.87;17.13;;;1.30;99.90;;;;;;5074512;28;20473;-62
2022/12/11 01:02:39;;;;;;;26.30;17.33;;;1.40;99.90;;;;;;5074042;28;20465;-62
2022/12/11 01:05:09;;;;;;;29.47;18.13;;;1.50;99.90;;;;;;5074669;28;20527;-62
2022/12/11 01:07:37;;;;;;;27.40;17.80;;;1.40;99.90;;;;;;5074694;28;20585;-62
2022/12/11 01:10:26;;;;;;;25.47;16.23;;;1.20;99.90;;;;;;5074452;28;20936;-61
2022/12/11 01:12:56;;;;;;;23.70;15.67;;;1.10;99.90;;;;;;5074207;28;20558;-61
2022/12/11 01:15:26;;;;;;;27.30;18.20;;;1.30;99.90;;;;;;5074603;28;20478;-60
2022/12/11 01:17:55;;;;;;;24.80;17.03;;;1.10;99.90;;;;;;5074637;28;20468;-62
2022/12/11 01:20:25;;;;;;;26.03;16.37;;;1.00;99.90;;;;;;5074234;28;20524;-62
2022/12/11 01:22:53;;;;;;;25.13;15.83;;;1.00;99.90;;;;;;5074438;28;20477;-61
2022/12/11 01:25:23;;;;;;;24.93;15.57;;;1.00;99.90;;;;;;5073711;28;20482;-61
2022/12/11 01:27:52;;;;;;;25.57;16.93;;;1.00;99.90;;;;;;5074216;28;20591;-62
2022/12/11 01:30:22;;;;;;;20.87;13.47;;;0.90;99.90;;;;;;5073107;28;20531;-62
2022/12/11 01:32:50;;;;;;;24.97;15.80;;;1.10;99.90;;;;;;5071709;28;20475;-61
2022/12/11 01:35:19;;;;;;;22.80;14.30;;;1.20;99.90;;;;;;5073880;28;20971;-62
2022/12/11 01:37:47;;;;;;;25.00;15.27;;;1.20;99.90;;;;;;5074030;28;20477;-62
2022/12/11 01:40:17;;;;;;;30.00;16.90;;;1.30;99.90;;;;;;5073559;28;20860;-61
2022/12/11 01:42:47;;;;;;;24.93;15.43;;;1.20;99.90;;;;;;5073866;28;20484;-61
2022/12/11 01:45:25;;;;;;;26.07;17.53;;;1.10;99.90;;;;;;5073723;28;20504;-62
2022/12/11 01:47:57;;;;;;;25.87;16.07;;;1.10;99.90;;;;;;5073773;28;20523;-62
2022/12/11 01:50:25;;;;;;;23.03;15.37;;;1.00;99.90;;;;;;5073460;28;20558;-61
2022/12/11 01:52:53;;;;;;;22.93;15.27;;;0.90;99.90;;;;;;5073723;28;20880;-61
2022/12/11 01:55:22;;;;;;;24.13;15.53;;;0.90;99.90;;;;;;5073888;28;20880;-61
2022/12/11 01:57:53;;;;;;;23.97;15.67;;;0.80;99.90;;;;;;5073330;28;20474;-61
2022/12/11 02:00:21;;;;;;;25.10;15.23;;;0.80;99.90;;;;;;5073212;28;20474;-61
2022/12/11 02:02:50;;;;;;;21.47;14.90;;;0.70;99.90;;;;;;5069344;28;20494;-62
2022/12/11 02:05:18;;;;;;;22.03;14.63;;;0.70;99.90;;;;;;5073672;28;20458;-61
2022/12/11 02:07:50;;;;;;;24.83;15.53;;;0.60;99.90;;;;;;5073474;28;20469;-61
2022/12/11 02:10:18;;;;;;;23.30;14.53;;;0.60;99.90;;;;;;5073128;28;20511;-61
2022/12/11 02:12:58;;;;;;;23.20;14.50;;;0.60;99.90;;;;;;5073089;28;20454;-61
2022/12/11 02:15:32;;;;;;;22.27;15.33;;;0.60;99.90;;;;;;5073287;28;20515;-61
2022/12/11 02:18:13;;;;;;;23.30;14.73;;;0.70;99.90;;;;;;5072977;28;20457;-61
2022/12/11 02:20:45;;;;;;;23.50;14.20;;;0.70;99.90;;;;;;5073025;28;20860;-61
2022/12/11 02:23:31;;;;;;;23.23;14.87;;;0.70;99.90;;;;;;5072999;28;20458;-61
2022/12/11 02:26:46;;;;;;;24.60;15.03;;;0.60;99.90;;;;;;5073095;28;20465;-61
2022/12/11 02:29:22;;;;;;;25.00;14.87;;;0.70;99.90;;;;;;5058104;28;20461;-61
2022/12/11 02:31:54;;;;;;;22.57;14.23;;;0.60;99.90;;;;;;5072230;28;20473;-61
2022/12/11 02:34:28;;;;;;;24.83;15.67;;;0.60;99.90;;;;;;5072696;28;20535;-61
2022/12/11 02:37:01;;;;;;;21.50;14.53;;;0.60;99.90;;;;;;5073170;28;20458;-61
2022/12/11 02:39:31;;;;;;;22.17;14.30;;;0.60;99.90;;;;;;5072049;28;20479;-61
2022/12/11 02:42:00;;;;;;;22.93;15.17;;;0.50;99.90;;;;;;5072724;28;20469;-61
2022/12/11 02:44:33;;;;;;;24.60;15.53;;;0.50;99.90;;;;;;5072890;28;20473;-61
2022/12/11 02:47:04;;;;;;;23.33;14.80;;;0.50;99.90;;;;;;5073125;28;20474;-61
2022/12/11 02:49:33;;;;;;;23.00;15.33;;;0.50;99.90;;;;;;5072736;28;20470;-61
2022/12/11 02:52:05;;;;;;;20.77;13.53;;;0.50;99.90;;;;;;5072563;28;20482;-61
2022/12/11 02:54:37;;;;;;;22.07;13.93;;;0.50;99.90;;;;;;5072772;28;20964;-61
2022/12/11 02:57:11;;;;;;;21.57;14.53;;;0.50;99.90;;;;;;5072823;28;20859;-61
2022/12/11 02:59:44;;;;;;;22.80;15.03;;;0.40;99.90;;;;;;5072274;28;20473;-61
2022/12/11 03:02:13;;;;;;;22.83;15.83;;;0.40;99.90;;;;;;5067387;28;20739;-61
2022/12/11 03:04:43;;;;;;;21.07;13.63;;;0.50;99.90;;;;;;5072641;28;20826;-61
2022/12/11 03:07:17;;;;;;;23.17;14.27;;;0.60;99.90;;;;;;5072547;28;20473;-61
2022/12/11 03:09:47;;;;;;;25.27;14.70;;;0.50;99.90;;;;;;5072105;28;20476;-61
2022/12/11 03:12:19;;;;;;;20.37;13.37;;;0.50;99.90;;;;;;5072477;28;20473;-61
2022/12/11 03:14:49;;;;;;;22.40;14.63;;;0.40;99.90;;;;;;5072668;28;20466;-61
2022/12/11 03:17:21;;;;;;;24.80;16.00;;;0.60;99.90;;;;;;5072380;28;20477;-60
2022/12/11 03:19:55;;;;;;;22.73;14.50;;;0.60;99.90;;;;;;5072583;28;20527;-61
2022/12/11 03:22:28;;;;;;;22.73;14.57;;;0.50;99.90;;;;;;5072318;28;20531;-61
2022/12/11 03:25:02;;;;;;;26.30;16.37;;;0.50;99.90;;;;;;5072379;28;20511;-61
2022/12/11 03:27:36;;;;;;;22.60;14.90;;;0.60;99.90;;;;;;5072022;28;21038;-61
2022/12/11 03:30:11;;;;;;;21.20;13.97;;;0.50;99.90;;;;;;5072347;28;20490;-61
2022/12/11 03:32:43;;;;;;;25.07;15.30;;;0.50;99.90;;;;;;5071452;28;20464;-60
2022/12/11 03:35:16;;;;;;;26.17;15.60;;;0.50;99.90;;;;;;5052749;28;20462;-61
2022/12/11 03:37:46;;;;;;;20.27;13.30;;;0.40;99.90;;;;;;5052091;28;20474;-60
2022/12/11 03:40:17;;;;;;;23.50;14.67;;;0.50;99.90;;;;;;5064204;28;20474;-61
2022/12/11 03:42:49;;;;;;;23.70;14.73;;;0.40;99.90;;;;;;5072004;28;20503;-61
2022/12/11 03:45:20;;;;;;;21.77;13.97;;;0.40;99.90;;;;;;5072190;28;20541;-61
2022/12/11 03:47:52;;;;;;;23.90;14.57;;;0.40;99.90;;;;;;5072188;28;20469;-61
2022/12/11 03:50:21;;;;;;;25.90;15.27;;;0.30;99.90;;;;;;5072087;28;20477;-61
2022/12/11 03:52:52;;;;;;;25.67;15.43;;;0.30;99.90;;;;;;5074649;28;21034;-61
2022/12/11 03:55:22;;;;;;;23.80;14.30;;;0.40;99.90;;;;;;5075984;28;20492;-61
2022/12/11 03:57:50;;;;;;;23.43;15.00;;;0.30;99.90;;;;;;5075623;28;20522;-61
2022/12/11 04:00:22;;;;;;;24.20;15.03;;;0.40;99.90;;;;;;5075543;28;20471;-61
2022/12/11 04:05:40;;;;;;;24.10;14.20;;;0.30;99.90;;;;;;5075938;28;20500;-60
2022/12/11 04:08:08;;;;;;;23.43;15.40;;;0.30;99.90;;;;;;5075536;28;20481;-61
2022/12/11 04:10:36;;;;;;;23.57;15.27;;;0.30;99.90;;;;;;5075296;28;20482;-61
2022/12/11 04:13:04;;;;;;;23.13;13.47;;;0.40;99.90;;;;;;5075528;28;20469;-61
2022/12/11 04:15:33;;;;;;;27.90;16.73;;;0.50;99.90;;;;;;5075747;28;20464;-60
2022/12/11 04:26:20;;;;;;;23.53;15.70;;;0.40;99.90;;;;;;5074882;28;20454;-61
2022/12/11 04:28:49;;;;;;;21.70;13.87;;;0.40;99.90;;;;;;5075172;28;20464;-61
2022/12/11 04:31:20;;;;;;;25.40;18.45;;;0.40;99.90;;;;;;5074305;28;20449;-61
2022/12/11 04:33:48;;;;;;;23.87;15.87;;;0.40;99.90;;;;;;5075395;28;20695;-61
2022/12/11 04:36:16;;;;;;;21.90;15.00;;;0.40;99.90;;;;;;5075483;28;20499;-61
2022/12/11 04:38:45;;;;;;;24.67;16.17;;;0.50;99.90;;;;;;5075002;28;20478;-61
2022/12/11 04:41:14;;;;;;;25.23;15.70;;;0.40;99.90;;;;;;5075039;28;20458;-61
2022/12/11 04:43:43;;;;;;;23.60;15.60;;;0.50;99.90;;;;;;5075366;28;20791;-61
2022/12/11 04:46:14;;;;;;;26.93;16.17;;;0.50;99.90;;;;;;5074955;28;20522;-61
2022/12/11 04:48:44;;;;;;;28.70;16.40;;;0.40;99.90;;;;;;5075094;28;20519;-61
2022/12/11 04:51:13;;;;;;;25.37;16.30;;;0.40;99.90;;;;;;5075394;28;20491;-61
2022/12/11 04:57:04;;;;;;;23.23;14.63;;;0.40;99.90;;;;;;5074035;28;20480;-61
2022/12/11 04:59:32;;;;;;;23.83;14.90;;;0.40;99.90;;;;;;5074478;28;20476;-61
2022/12/11 05:02:00;;;;;;;24.67;15.57;;;0.30;99.90;;;;;;5074098;28;20481;-61
2022/12/11 05:04:32;;;;;;;23.53;15.33;;;0.30;99.90;;;;;;5074386;28;20868;-61
2022/12/11 05:07:00;;;;;;;27.03;15.73;;;0.30;99.90;;;;;;5074722;28;20519;-61
2022/12/11 05:09:29;;;;;;;23.80;15.70;;;0.30;99.90;;;;;;5074053;28;20477;-61
2022/12/11 05:11:57;;;;;;;21.30;13.83;;;0.30;99.90;;;;;;5074720;28;20481;-61
2022/12/11 05:14:26;;;;;;;23.53;15.33;;;0.30;99.90;;;;;;5074221;28;20469;-61
2022/12/11 05:16:54;;;;;;;21.87;13.80;;;0.30;99.90;;;;;;5074451;28;20475;-61
2022/12/11 05:19:22;;;;;;;23.83;14.37;;;0.30;99.90;;;;;;5074575;28;20511;-61
2022/12/11 05:21:51;;;;;;;21.93;14.27;;;0.30;99.90;;;;;;5074376;28;20450;-61
2022/12/11 05:24:19;;;;;;;22.53;14.33;;;0.30;99.90;;;;;;5073071;28;20888;-61
2022/12/11 05:26:47;;;;;;;20.63;13.23;;;0.30;99.90;;;;;;5073549;28;20458;-61
2022/12/11 05:29:15;;;;;;;24.27;15.30;;;0.50;99.90;;;;;;5073691;28;20469;-61
2022/12/11 05:31:44;;;;;;;26.20;16.20;;;0.60;99.90;;;;;;5060198;28;20893;-61
2022/12/11 05:34:12;;;;;;;21.80;14.83;;;0.50;99.90;;;;;;5046171;28;20465;-61
2022/12/11 05:36:40;;;;;;;24.47;15.07;;;0.40;99.90;;;;;;5054073;28;20981;-61
2022/12/11 05:39:11;;;;;;;27.63;16.20;;;0.70;99.90;;;;;;5053902;28;20471;-62
2022/12/11 05:41:39;;;;;;;24.67;15.27;;;0.60;99.90;;;;;;5054040;28;20865;-61
2022/12/11 05:44:07;;;;;;;26.00;15.77;;;0.50;99.90;;;;;;5054062;28;20984;-61
2022/12/11 05:46:35;;;;;;;25.20;15.83;;;0.50;99.90;;;;;;5053953;28;20532;-61
2022/12/11 05:49:03;;;;;;;24.83;15.73;;;0.40;99.90;;;;;;5054044;28;20470;-61
2022/12/11 05:51:33;;;;;;;24.47;15.63;;;0.40;99.90;;;;;;5053602;28;20975;-61
2022/12/11 05:54:02;;;;;;;26.20;16.93;;;0.30;99.90;;;;;;5053668;28;20458;-61
2022/12/11 05:56:33;;;;;;;27.20;16.80;;;0.30;99.90;;;;;;5053230;28;20470;-61
2022/12/11 05:59:03;;;;;;;22.53;13.90;;;0.30;99.90;;;;;;5053352;28;21008;-61
2022/12/11 06:01:33;;;;;;;27.27;16.73;;;0.30;99.90;;;;;;5052605;28;20481;-61
2022/12/11 06:04:02;;;;;;;20.53;14.03;;;0.30;99.90;;;;;;5053360;28;20467;-61
2022/12/11 06:06:31;;;;;;;24.50;15.37;;;0.40;99.90;;;;;;5053368;28;20502;-61
2022/12/11 06:09:00;;;;;;;27.87;17.17;;;0.60;99.90;;;;;;5053651;28;20542;-61
2022/12/11 06:11:31;;;;;;;21.60;14.27;;;0.50;99.90;;;;;;5053378;28;20480;-61
2022/12/11 06:14:01;;;;;;;26.50;16.07;;;0.70;99.90;;;;;;5053140;28;20865;-61
2022/12/11 06:16:30;;;;;;;27.77;17.20;;;0.80;99.90;;;;;;5052964;28;20524;-58
2022/12/11 06:18:58;;;;;;;28.87;17.80;;;0.60;99.90;;;;;;5053580;28;20981;-59
2022/12/11 06:21:28;;;;;;;25.70;15.70;;;0.50;99.90;;;;;;5053013;28;20464;-58
2022/12/11 06:23:58;;;;;;;27.90;17.73;;;0.80;99.90;;;;;;5053211;28;20470;-59
2022/12/11 06:26:27;;;;;;;26.40;16.40;;;0.60;99.90;;;;;;5052987;28;20962;-58
2022/12/11 06:28:57;;;;;;;24.57;15.80;;;0.50;99.90;;;;;;5053084;28;20462;-59
2022/12/11 06:31:25;;;;;;;27.33;17.20;;;0.50;99.90;;;;;;5052624;28;20469;-58
2022/12/11 06:33:53;;;;;;;26.30;16.13;;;0.40;99.90;;;;;;5052830;28;20528;-59
2022/12/11 06:36:23;;;;;;;23.30;15.43;;;0.40;99.90;;;;;;5052931;28;20474;-59
2022/12/11 06:38:52;;;;;;;24.33;16.17;;;0.40;99.90;;;;;;5052870;28;20525;-59
2022/12/11 06:41:21;;;;;;;22.00;15.20;;;0.30;99.90;;;;;;5053247;28;20488;-58
2022/12/11 06:43:49;;;;;;;23.80;15.40;;;0.40;99.90;;;;;;5052677;28;20477;-59
2022/12/11 06:46:19;;;;;;;22.47;14.80;;;0.50;99.90;;;;;;5053197;28;20893;-59
2022/12/11 06:48:48;;;;;;;22.57;15.70;;;0.40;99.90;;;;;;5053019;28;20467;-59
2022/12/11 06:51:18;;;;;;;24.27;15.67;;;0.40;99.90;;;;;;5053046;28;20969;-58
2022/12/11 06:53:51;;;;;;;26.67;17.17;;;0.30;99.90;;;;;;5052162;28;20522;-58
2022/12/11 06:56:20;;;;;;;22.37;14.83;;;0.40;99.90;;;;;;5052721;28;20470;-59
2022/12/11 06:58:49;;;;;;;21.70;15.20;;;0.30;99.90;;;;;;5052735;28;20823;-59
2022/12/11 07:01:20;;;;;;;21.70;14.83;;;0.30;99.90;;;;;;5055975;28;20478;-59
2022/12/11 07:03:49;;;;;;;23.27;14.57;;;0.40;99.90;;;;;;5055056;28;20558;-59
2022/12/11 07:06:18;;;;;;;21.77;14.50;;;0.40;99.90;;;;;;5052171;28;20478;-59
2022/12/11 07:08:46;;;;;;;22.47;13.70;;;0.30;99.90;;;;;;5052898;28;21620;-59
2022/12/11 07:11:16;;;;;;;20.57;13.47;;;0.30;99.90;;;;;;5052518;28;20482;-59
2022/12/11 07:13:44;;;;;;;21.17;13.10;;;0.30;99.90;;;;;;5052651;28;21935;-59
2022/12/11 07:16:14;;;;;;;19.77;13.03;;;0.30;99.90;;;;;;5052590;28;20466;-58
2022/12/11 07:18:48;;;;;;;18.77;12.47;;;0.20;99.90;;;;;;5052206;28;20466;-58
2022/12/11 07:21:16;;;;;;;18.00;12.40;;;0.20;99.90;;;;;;5052024;28;20466;-59
2022/12/11 07:23:44;;;;;;;19.47;12.50;;;0.20;99.90;;;;;;5052042;28;20950;-58
2022/12/11 07:26:15;;;;;;;20.83;13.33;;;0.20;99.90;;;;;;5054200;28;20463;-59
2022/12/11 07:28:43;;;;;;;17.27;11.83;;;0.30;99.90;;;;;;5056268;28;20470;-59
2022/12/11 07:31:14;;;;;;;16.73;11.00;;;0.30;99.90;;;;;;5074684;28;20484;-59
2022/12/11 07:33:44;;;;;;;16.50;11.37;;;0.30;99.90;;;;;;5076284;28;20552;-59
2022/12/11 07:36:14;;;;;;;17.87;12.17;;;0.30;99.90;;;;;;5087989;28;20469;-58
2022/12/11 07:38:43;;;;;;;17.37;11.50;;;0.30;99.90;;;;;;5096199;28;20482;-58
2022/12/11 07:41:13;;;;;;;16.40;11.30;;;0.30;99.90;;;;;;5096309;28;20465;-58
2022/12/11 07:43:42;;;;;;;19.10;11.47;;;0.20;99.90;;;;;;5094387;28;20473;-59
2022/12/11 07:46:13;;;;;;;16.57;11.27;;;0.20;99.90;;;;;;5095824;28;20809;-58
2022/12/11 07:48:44;;;;;;;15.33;10.97;;;0.20;99.90;;;;;;5095764;28;20915;-58
2022/12/11 07:51:14;;;;;;;18.70;11.90;;;0.20;99.90;;;;;;5095443;28;20452;-59
2022/12/11 07:53:44;;;;;;;16.20;11.70;;;0.20;99.90;;;;;;5093853;28;20481;-59
2022/12/11 07:56:12;;;;;;;15.40;10.93;;;0.20;99.90;;;;;;5092098;28;20847;-58
2022/12/11 07:58:40;;;;;;;15.30;10.77;;;0.10;99.90;;;;;;5094625;28;20471;-58
2022/12/11 08:01:11;;;;;;;16.33;11.33;;;0.10;99.90;;;;;;5094650;28;20472;-58
2022/12/11 08:03:40;;;;;;;15.43;10.80;;;0.10;99.90;;;;;;5075726;28;20791;-58
2022/12/11 08:06:10;;;;;;;18.07;11.07;;;0.20;99.90;;;;;;5075994;28;20453;-59
2022/12/11 08:08:39;;;;;;;16.97;11.73;;;0.20;99.90;;;;;;5085775;28;20873;-61
2022/12/11 08:11:11;;;;;;;18.50;11.63;;;0.30;99.90;;;;;;5095806;28;20816;-61
2022/12/11 08:13:39;;;;;;;17.40;11.03;;;0.30;99.90;;;;;;5092935;28;20487;-61
2022/12/11 08:16:10;;;;;;;17.20;11.90;;;0.30;99.90;;;;;;5095076;28;20517;-61
2022/12/11 08:18:38;;;;;;;16.67;11.50;;;0.30;99.90;;;;;;5095555;28;20529;-61
2022/12/11 08:21:07;;;;;;;16.73;10.87;;;0.20;99.90;;;;;;5095534;28;20482;-61
2022/12/11 08:23:37;;;;;;;15.73;10.43;;;0.30;99.90;;;;;;5095030;28;20815;-58
2022/12/11 08:26:08;;;;;;;16.07;11.13;;;0.20;99.90;;;;;;5092487;28;20975;-61
2022/12/11 08:28:36;;;;;;;14.60;10.23;;;0.20;99.90;;;;;;5086295;28;20479;-61
2022/12/11 08:31:06;;;;;;;17.03;10.83;;;0.20;99.90;;;;;;5082668;28;20477;-60
2022/12/11 08:33:35;;;;;;;19.33;11.87;;;0.30;99.90;;;;;;5090610;28;20495;-61
2022/12/11 08:36:04;;;;;;;14.73;10.50;;;0.40;99.90;;;;;;5095289;28;20510;-61
2022/12/11 08:38:32;;;;;;;14.67;10.43;;;0.30;99.90;;;;;;5094260;28;20507;-61
2022/12/11 08:41:08;;;;;;;17.27;10.67;;;0.30;99.90;;;;;;5095204;28;20471;-61
2022/12/11 08:43:36;;;;;;;15.67;10.90;;;0.30;99.90;;;;;;5091162;28;20464;-58
2022/12/11 08:46:05;;;;;;;15.47;10.00;;;0.30;99.90;;;;;;5089788;28;20820;-59
2022/12/11 08:48:34;;;;;;;15.67;10.20;;;0.30;99.90;;;;;;5094880;28;20987;-58
2022/12/11 08:51:04;;;;;;;14.67;9.47;;;0.20;99.90;;;;;;5094718;28;20839;-58
2022/12/11 08:53:33;;;;;;;17.67;12.07;;;0.20;99.90;;;;;;5090920;28;20526;-58
2022/12/11 08:56:04;;;;;;;14.80;10.87;;;0.20;99.90;;;;;;5085987;28;20461;-59
2022/12/11 08:58:32;;;;;;;14.70;10.73;;;0.10;99.90;;;;;;5091014;28;20472;-58
2022/12/11 09:01:00;;;;;;;17.33;10.63;;;0.20;99.90;;;;;;5091795;28;20477;-58
2022/12/11 09:03:28;;;;;;;17.33;11.60;;;0.20;99.90;;;;;;5080215;28;20957;-58
2022/12/11 09:05:56;;;;;;;15.87;10.60;;;0.20;99.90;;;;;;5074762;28;20860;-59
2022/12/11 09:08:24;;;;;;;15.83;11.47;;;0.40;99.90;;;;;;5081446;28;20480;-59
2022/12/11 09:10:52;;;;;;;17.37;11.57;;;0.50;99.90;;;;;;5074378;28;20460;-59
2022/12/11 09:13:22;;;;;;;15.73;10.93;;;0.50;99.90;;;;;;5074194;28;20473;-59
2022/12/11 09:15:50;;;;;;;16.53;10.77;;;0.50;99.90;;;;;;5074184;28;20463;-58
2022/12/11 09:18:18;;;;;;;14.30;10.57;;;0.50;99.90;;;;;;5074493;28;20472;-58
2022/12/11 09:20:46;;;;;;;14.90;10.47;;;0.50;99.90;;;;;;5074606;28;20469;-58
2022/12/11 09:23:14;;;;;;;15.87;10.63;;;0.50;99.90;;;;;;5074548;28;20515;-59
2022/12/11 09:25:42;;;;;;;26.53;16.90;;;0.60;99.90;;;;;;5074433;28;20472;-59
2022/12/11 09:28:10;;;;;;;19.90;12.83;;;0.60;99.90;;;;;;5065943;28;20466;-59
2022/12/11 09:30:39;;;;;;;20.97;12.80;;;0.60;99.90;;;;;;5073367;28;20530;-58
2022/12/11 09:33:07;;;;;;;16.47;11.27;;;0.50;99.90;;;;;;5067014;28;20532;-59
2022/12/11 09:35:36;;;;;;;14.93;10.73;;;0.50;99.90;;;;;;5054359;28;20485;-59
2022/12/11 09:38:04;;;;;;;17.07;10.63;;;0.50;99.90;;;;;;5055964;28;20536;-59
2022/12/11 09:40:32;;;;;;;15.13;10.40;;;0.50;99.90;;;;;;5073976;28;20458;-58
2022/12/11 09:43:06;;;;;;;14.93;10.50;;;0.50;99.90;;;;;;5068876;28;20992;-58
2022/12/11 09:45:34;;;;;;;16.67;9.43;;;0.50;99.90;;;;;;5064270;28;20516;-59
2022/12/11 09:48:05;;;;;;;14.40;10.03;;;0.50;99.90;;;;;;5053866;28;20857;-59
2022/12/11 09:50:34;;;;;;;15.23;9.97;;;0.60;99.90;;;;;;5053830;28;20506;-59
2022/12/11 09:53:11;;;;;;;15.27;10.37;;;0.60;99.90;;;;;;5053990;28;20578;-59
2022/12/11 09:55:46;;;;;;;19.40;11.67;;;0.60;99.90;;;;;;5057298;28;20959;-58
2022/12/11 09:58:23;;;;;;;18.07;11.50;;;0.60;99.90;;;;;;5046436;28;20814;-59
2022/12/11 10:00:57;;;;;;;17.10;11.40;;;0.60;99.90;;;;;;5053082;28;20482;-58
2022/12/11 10:04:00;;;;;;;16.13;10.37;;;0.60;99.90;;;;;;5051194;28;20552;-58
2022/12/11 10:06:33;;;;;;;14.83;10.37;;;0.60;99.90;;;;;;5047455;28;20989;-58
2022/12/11 10:09:14;;;;;;;15.07;10.50;;;0.60;99.90;;;;;;5053750;28;20459;-59
2022/12/11 10:11:58;;;;;;;15.03;10.20;;;0.60;99.90;;;;;;5053527;28;20553;-59
2022/12/11 10:14:38;;;;;;;16.27;10.47;;;0.60;99.90;;;;;;5047354;28;20586;-61
2022/12/11 10:17:13;;;;;;;15.67;10.83;;;0.50;99.90;;;;;;5033301;28;20478;-61
2022/12/11 10:19:43;;;;;;;15.53;10.00;;;0.40;99.90;;;;;;5033450;28;20474;-62
2022/12/11 10:22:18;;;;;;;14.60;10.13;;;0.40;99.90;;;;;;5033539;28;20467;-61
2022/12/11 10:24:55;;;;;;;15.07;10.43;;;0.50;99.90;;;;;;5035479;28;20474;-62
2022/12/11 10:27:40;;;;;;;17.30;9.93;;;0.50;99.90;;;;;;5052277;28;20475;-61
2022/12/11 10:30:15;;;;;;;15.47;9.93;;;0.60;99.90;;;;;;5053188;28;20467;-61
2022/12/11 10:32:51;;;;;;;15.20;10.23;;;0.40;99.90;;;;;;5052692;28;20466;-61
2022/12/11 10:35:29;;;;;;;17.33;10.93;;;0.50;99.90;;;;;;5052783;28;20916;-61
2022/12/11 10:38:05;;;;;;;18.13;12.20;;;0.70;99.90;;;;;;5053245;28;20458;-61
2022/12/11 10:40:35;;;;;;;17.07;10.90;;;1.00;99.90;;;;;;5052762;28;20459;-62
2022/12/11 10:43:03;;;;;;;16.67;12.47;;;1.20;99.90;;;;;;5053058;28;20466;-62
2022/12/11 10:45:31;;;;;;;16.33;11.33;;;1.30;99.90;;;;;;5052647;28;20482;-62
2022/12/11 10:48:03;;;;;;;17.10;11.17;;;1.30;99.90;;;;;;5053007;28;20869;-62
2022/12/11 10:50:33;;;;;;;14.67;11.00;;;1.40;99.90;;;;;;5052863;28;21001;-62
2022/12/11 10:53:01;;;;;;;16.90;11.80;;;1.50;99.90;;;;;;5052606;28;20475;-61
2022/12/11 10:55:38;;;;;;;55.33;36.70;;;1.60;99.90;;;;;;5052322;28;20486;-62
2022/12/11 10:58:06;;;;;;;20.50;13.80;;;1.70;99.90;;;;;;5052208;28;20537;-62
2022/12/11 11:00:37;;;;;;;20.17;15.17;;;1.90;99.90;;;;;;5054955;28;20827;-62
2022/12/11 11:03:07;;;;;;;18.07;12.73;;;2.10;99.90;;;;;;5072810;28;20461;-62
2022/12/11 11:05:37;;;;;;;17.57;11.97;;;2.20;99.90;;;;;;5072438;28;20519;-63
2022/12/11 11:08:14;;;;;;;19.20;12.83;;;2.30;99.90;;;;;;5052728;28;20459;-62
2022/12/11 11:10:54;;;;;;;17.30;11.87;;;2.40;99.90;;;;;;5052284;28;20465;-63
2022/12/11 11:13:23;;;;;;;17.80;12.10;;;2.50;99.90;;;;;;5052706;28;20472;-62
2022/12/11 11:15:59;;;;;;;15.70;11.03;;;2.60;99.90;;;;;;5059235;28;20534;-63
2022/12/11 11:18:29;;;;;;;17.47;12.07;;;2.80;99.90;;;;;;5072295;28;20453;-62
2022/12/11 11:20:59;;;;;;;15.63;10.30;;;2.80;99.90;;;;;;5072715;28;20474;-63
2022/12/11 11:23:28;;;;;;;17.53;11.83;;;2.80;99.90;;;;;;5072231;28;20466;-62
2022/12/11 11:25:59;;;;;;;17.17;12.00;;;3.00;99.90;;;;;;5072375;28;20869;-63
2022/12/11 11:28:30;;;;;;;19.47;12.23;;;3.10;99.90;;;;;;5071819;28;20467;-62
2022/12/11 11:31:04;;;;;;;15.23;11.00;;;3.10;99.90;;;;;;5066831;27;20538;-63
2022/12/11 11:33:34;;;;;;;18.07;11.63;;;3.10;99.90;;;;;;5051740;28;20535;-63
2022/12/11 11:36:06;;;;;;;16.30;11.33;;;3.10;99.90;;;;;;5054675;28;20489;-63
2022/12/11 11:38:39;;;;;;;16.70;10.67;;;3.10;99.90;;;;;;5057170;28;20464;-63
2022/12/11 11:41:16;;;;;;;15.97;11.50;;;3.10;99.90;;;;;;5064108;28;20885;-63
2022/12/11 11:43:46;;;;;;;16.90;11.33;;;3.00;99.90;;;;;;5052310;28;20475;-63
2022/12/11 11:46:19;;;;;;;14.13;10.27;;;3.00;99.90;;;;;;5052397;28;20464;-63
2022/12/11 11:48:57;;;;;;;14.97;10.67;;;3.00;99.90;;;;;;5051263;28;20976;-63
2022/12/11 11:51:30;;;;;;;17.03;11.60;;;3.00;99.90;;;;;;5052098;28;20470;-63
2022/12/11 11:54:01;;;;;;;17.03;11.80;;;3.00;99.90;;;;;;5051973;28;20516;-64
2022/12/11 11:56:35;;;;;;;18.23;12.33;;;3.00;99.90;;;;;;5054821;28;20563;-63
2022/12/11 11:59:12;;;;;;;17.80;12.47;;;3.00;99.90;;;;;;5052253;28;20550;-63
2022/12/11 12:01:42;;;;;;;17.67;12.70;;;3.00;99.90;;;;;;5070140;28;20595;-63
2022/12/11 12:04:11;;;;;;;18.37;12.00;;;2.90;99.90;;;;;;5072151;28;20477;-63
2022/12/11 12:07:08;;;;;;;16.47;11.93;;;2.90;99.90;;;;;;5071804;28;20480;-63
2022/12/11 12:09:46;;;;;;;17.33;12.30;;;2.90;99.90;;;;;;5072053;28;20467;-63
2022/12/11 12:12:24;;;;;;;15.73;10.47;;;2.90;99.90;;;;;;5071972;28;20457;-63
2022/12/11 12:15:21;;;;;;;16.43;10.90;;;2.80;99.90;;;;;;5075733;28;20517;-63
2022/12/11 12:17:52;;;;;;;16.00;10.73;;;2.80;99.90;;;;;;5075704;28;20794;-64
2022/12/11 12:20:37;;;;;;;19.03;11.87;;;2.90;99.90;;;;;;5075287;28;20549;-63
2022/12/11 12:23:25;;;;;;;17.07;11.37;;;2.80;99.90;;;;;;5075437;28;20458;-63
2022/12/11 12:26:01;;;;;;;15.80;11.27;;;2.90;99.90;;;;;;5075540;28;20976;-63
2022/12/11 12:28:39;;;;;;;17.00;10.97;;;2.80;99.90;;;;;;5075310;28;20819;-63
2022/12/11 12:31:22;;;;;;;16.47;11.10;;;2.80;99.90;;;;;;5081473;28;20511;-63
2022/12/11 12:34:01;;;;;;;15.23;10.30;;;2.80;99.90;;;;;;5075333;28;20985;-63
2022/12/11 12:36:37;;;;;;;16.53;11.47;;;2.70;99.90;;;;;;5075346;28;21019;-63
2022/12/11 12:39:17;;;;;;;17.13;11.23;;;2.70;99.90;;;;;;5075164;28;21002;-64
2022/12/11 12:41:53;;;;;;;16.33;11.07;;;2.70;99.90;;;;;;5072328;28;20547;-63
2022/12/11 12:44:23;;;;;;;17.43;11.30;;;2.70;99.90;;;;;;5085759;28;20477;-62
2022/12/11 12:46:58;;;;;;;19.37;12.10;;;2.70;99.90;;;;;;5083519;28;20495;-63
2022/12/11 12:49:40;;;;;;;17.50;12.67;;;2.60;99.90;;;;;;5086520;28;20471;-63
2022/12/11 12:52:13;;;;;;;16.97;11.57;;;2.50;99.90;;;;;;5085822;28;20868;-63
2022/12/11 12:55:12;;;;;;;17.23;12.10;;;2.50;99.90;;;;;;5083478;28;20465;-63
2022/12/11 12:57:35;;;;;;;16.80;11.53;;;2.40;99.90;;;;;;5085289;28;20464;-64
2022/12/11 13:00:04;;;;;;;17.50;12.23;;;2.40;99.90;;;;;;5085450;28;20461;-64
2022/12/11 13:02:50;;;;;;;17.10;11.93;;;2.30;99.90;;;;;;5084311;28;20472;-63
2022/12/11 13:05:23;;;;;;;15.63;10.57;;;2.30;99.90;;;;;;5088364;28;20886;-63
2022/12/11 13:07:55;;;;;;;16.33;11.83;;;2.30;99.90;;;;;;5088596;28;20468;-60
2022/12/11 13:10:28;;;;;;;17.13;11.20;;;2.30;99.90;;;;;;5087353;28;20461;-57
2022/12/11 13:12:56;;;;;;;17.60;11.30;;;2.20;99.90;;;;;;5088661;28;20483;-61